sensor_id;sensor_type;location;lat;lon;timestamp;pressure;altitude;pressure_sealevel;temperature;humidity
17505;BME280;8870;50.950;11.762;2023-02-16T00:05:21;99206.25;;;1.75;100.00
17505;BME280;8870;50.950;11.762;2023-02-16T00:10:55;99207.44;;;1.69;100.00
17505;BME280;8870;50.950;11.762;2023-02-16T00:16:26;99199.47;;;1.69;100.00
17505;BME280;8870;50.950;11.762;2023-02-16T00:21:58;99198.69;;;1.67;100.00
17505;BME280;8870;50.950;11.762;2023-02-16T00:27:20;99188.06;;;1.67;100.00
17505;BME280;8870;50.950;11.762;2023-02-16T00:32:51;99202.13;;;1.69;100.00
17505;BME280;8870;50.950;11.762;2023-02-16T00:38:13;99199.63;;;1.66;100.00
17505;BME280;8870;50.950;11.762;2023-02-16T00:43:46;99196.88;;;1.67;100.00
17505;BME280;8870;50.950;11.762;2023-02-16T00:49:20;99195.25;;;1.65;100.00
17505;BME280;8870;50.950;11.762;2023-02-16T00:54:39;99197.81;;;1.66;100.00
17505;BME280;8870;50.950;11.762;2023-02-16T01:00:17;99196.09;;;1.65;100.00
17505;BME280;8870;50.950;11.762;2023-02-16T01:05:36;99196.19;;;1.64;100.00
17505;BME280;8870;50.950;11.762;2023-02-16T01:11:07;99179.50;;;1.62;100.00
17505;BME280;8870;50.950;11.762;2023-02-16T01:16:34;99186.94;;;1.55;100.00
17505;BME280;8870;50.950;11.762;2023-02-16T01:22:09;99180.16;;;1.49;100.00
17505;BME280;8870;50.950;11.762;2023-02-16T01:27:37;99194.59;;;1.45;100.00
17505;BME280;8870;50.950;11.762;2023-02-16T01:33:10;99196.28;;;1.46;100.00
17505;BME280;8870;50.950;11.762;2023-02-16T01:38:29;99196.03;;;1.51;100.00
17505;BME280;8870;50.950;11.762;2023-02-16T01:44:02;99199.69;;;1.48;100.00
17505;BME280;8870;50.950;11.762;2023-02-16T01:49:39;99205.09;;;1.47;100.00
17505;BME280;8870;50.950;11.762;2023-02-16T01:55:01;99200.84;;;1.44;100.00
17505;BME280;8870;50.950;11.762;2023-02-16T02:06:32;99187.81;;;1.40;100.00
17505;BME280;8870;50.950;11.762;2023-02-16T02:12:10;99192.25;;;1.39;100.00
17505;BME280;8870;50.950;11.762;2023-02-16T02:17:30;99191.56;;;1.35;100.00
17505;BME280;8870;50.950;11.762;2023-02-16T02:23:22;99190.88;;;1.32;100.00
17505;BME280;8870;50.950;11.762;2023-02-16T02:29:04;99188.88;;;1.19;100.00
17505;BME280;8870;50.950;11.762;2023-02-16T02:34:49;99182.63;;;1.04;100.00
17505;BME280;8870;50.950;11.762;2023-02-16T02:40:17;99183.56;;;0.86;100.00
17505;BME280;8870;50.950;11.762;2023-02-16T02:45:57;99192.88;;;0.77;100.00
17505;BME280;8870;50.950;11.762;2023-02-16T02:51:17;99198.84;;;0.65;100.00
17505;BME280;8870;50.950;11.762;2023-02-16T02:56:57;99190.88;;;0.47;100.00
17505;BME280;8870;50.950;11.762;2023-02-16T03:02:32;99192.38;;;0.35;100.00
17505;BME280;8870;50.950;11.762;2023-02-16T03:08:08;99185.50;;;0.31;100.00
17505;BME280;8870;50.950;11.762;2023-02-16T03:13:34;99181.50;;;0.22;100.00
17505;BME280;8870;50.950;11.762;2023-02-16T03:19:11;99180.97;;;0.15;100.00
17505;BME280;8870;50.950;11.762;2023-02-16T03:24:42;99184.16;;;0.22;100.00
17505;BME280;8870;50.950;11.762;2023-02-16T03:30:28;99176.13;;;0.24;100.00
17505;BME280;8870;50.950;11.762;2023-02-16T03:35:50;99177.78;;;0.26;100.00
17505;BME280;8870;50.950;11.762;2023-02-16T03:41:21;99180.25;;;0.29;100.00
17505;BME280;8870;50.950;11.762;2023-02-16T03:46:52;99177.59;;;0.29;100.00
17505;BME280;8870;50.950;11.762;2023-02-16T03:52:13;99187.44;;;0.27;100.00
17505;BME280;8870;50.950;11.762;2023-02-16T03:57:44;99192.75;;;0.27;100.00
17505;BME280;8870;50.950;11.762;2023-02-16T04:03:03;99200.53;;;0.30;100.00
17505;BME280;8870;50.950;11.762;2023-02-16T04:08:37;99203.97;;;0.33;100.00
17505;BME280;8870;50.950;11.762;2023-02-16T04:13:56;99212.00;;;0.31;100.00
17505;BME280;8870;50.950;11.762;2023-02-16T04:19:27;99205.91;;;0.29;100.00
17505;BME280;8870;50.950;11.762;2023-02-16T04:24:48;99206.16;;;0.24;100.00
17505;BME280;8870;50.950;11.762;2023-02-16T04:30:21;99204.44;;;0.23;100.00
17505;BME280;8870;50.950;11.762;2023-02-16T04:35:39;99186.03;;;0.20;100.00
17505;BME280;8870;50.950;11.762;2023-02-16T04:41:14;99187.97;;;0.17;100.00
17505;BME280;8870;50.950;11.762;2023-02-16T04:46:32;99192.56;;;0.13;100.00
17505;BME280;8870;50.950;11.762;2023-02-16T04:52:04;99190.78;;;0.13;100.00
17505;BME280;8870;50.950;11.762;2023-02-16T04:57:25;99185.41;;;0.15;100.00
17505;BME280;8870;50.950;11.762;2023-02-16T05:02:56;99186.72;;;0.24;100.00
17505;BME280;8870;50.950;11.762;2023-02-16T05:08:14;99183.09;;;0.26;100.00
17505;BME280;8870;50.950;11.762;2023-02-16T05:13:48;99169.66;;;0.29;100.00
17505;BME280;8870;50.950;11.762;2023-02-16T05:19:18;99181.75;;;0.35;100.00
17505;BME280;8870;50.950;11.762;2023-02-16T05:24:49;99186.84;;;0.40;100.00
17505;BME280;8870;50.950;11.762;2023-02-16T05:30:12;99181.59;;;0.38;100.00
17505;BME280;8870;50.950;11.762;2023-02-16T05:35:43;99183.41;;;0.38;100.00
17505;BME280;8870;50.950;11.762;2023-02-16T05:41:02;99176.38;;;0.37;100.00
17505;BME280;8870;50.950;11.762;2023-02-16T05:46:47;99180.97;;;0.33;100.00
17505;BME280;8870;50.950;11.762;2023-02-16T05:52:05;99178.47;;;0.30;100.00
17505;BME280;8870;50.950;11.762;2023-02-16T05:57:37;99182.22;;;0.26;100.00
17505;BME280;8870;50.950;11.762;2023-02-16T06:02:58;99190.25;;;0.24;100.00
17505;BME280;8870;50.950;11.762;2023-02-16T06:08:30;99181.50;;;0.22;100.00
17505;BME280;8870;50.950;11.762;2023-02-16T06:13:48;99180.72;;;0.20;100.00
17505;BME280;8870;50.950;11.762;2023-02-16T06:19:23;99178.06;;;0.20;100.00
17505;BME280;8870;50.950;11.762;2023-02-16T06:24:41;99178.25;;;0.17;100.00
17505;BME280;8870;50.950;11.762;2023-02-16T06:30:12;99189.00;;;0.14;100.00
17505;BME280;8870;50.950;11.762;2023-02-16T06:35:34;99185.56;;;0.12;100.00
17505;BME280;8870;50.950;11.762;2023-02-16T06:41:05;99175.97;;;0.09;100.00
17505;BME280;8870;50.950;11.762;2023-02-16T06:46:52;99164.50;;;0.09;100.00
17505;BME280;8870;50.950;11.762;2023-02-16T06:52:13;99177.59;;;0.12;100.00
17505;BME280;8870;50.950;11.762;2023-02-16T06:57:45;99184.25;;;0.21;100.00
17505;BME280;8870;50.950;11.762;2023-02-16T07:03:04;99186.81;;;0.22;100.00
17505;BME280;8870;50.950;11.762;2023-02-16T07:08:38;99182.22;;;0.26;100.00
17505;BME280;8870;50.950;11.762;2023-02-16T07:13:56;99179.31;;;0.30;100.00
17505;BME280;8870;50.950;11.762;2023-02-16T07:19:27;99175.13;;;0.44;100.00
17505;BME280;8870;50.950;11.762;2023-02-16T07:24:49;99175.28;;;0.58;100.00
17505;BME280;8870;50.950;11.762;2023-02-16T07:30:21;99176.34;;;0.72;100.00
17505;BME280;8870;50.950;11.762;2023-02-16T07:35:40;99181.25;;;0.80;100.00
17505;BME280;8870;50.950;11.762;2023-02-16T07:41:15;99184.34;;;0.88;100.00
17505;BME280;8870;50.950;11.762;2023-02-16T07:46:41;99180.38;;;0.97;100.00
17505;BME280;8870;50.950;11.762;2023-02-16T07:52:12;99170.81;;;1.10;100.00
17505;BME280;8870;50.950;11.762;2023-02-16T07:57:34;99172.97;;;1.19;100.00
17505;BME280;8870;50.950;11.762;2023-02-16T08:03:05;99170.75;;;1.28;100.00
17505;BME280;8870;50.950;11.762;2023-02-16T08:08:23;99178.28;;;1.35;100.00
17505;BME280;8870;50.950;11.762;2023-02-16T08:13:57;99178.47;;;1.48;100.00
17505;BME280;8870;50.950;11.762;2023-02-16T08:19:15;99165.88;;;1.68;100.00
17505;BME280;8870;50.950;11.762;2023-02-16T08:24:46;99169.03;;;1.91;100.00
17505;BME280;8870;50.950;11.762;2023-02-16T08:30:09;99165.28;;;2.09;100.00
17505;BME280;8870;50.950;11.762;2023-02-16T08:35:41;99161.19;;;2.34;100.00
17505;BME280;8870;50.950;11.762;2023-02-16T08:41:00;99161.06;;;2.52;100.00
17505;BME280;8870;50.950;11.762;2023-02-16T08:46:35;99166.22;;;2.69;100.00
17505;BME280;8870;50.950;11.762;2023-02-16T08:51:56;99166.78;;;2.89;100.00
17505;BME280;8870;50.950;11.762;2023-02-16T08:57:27;99172.72;;;3.08;100.00
17505;BME280;8870;50.950;11.762;2023-02-16T09:02:48;99176.69;;;3.30;100.00
17505;BME280;8870;50.950;11.762;2023-02-16T09:08:20;99158.59;;;3.50;100.00
17505;BME280;8870;50.950;11.762;2023-02-16T09:13:39;99170.81;;;3.67;100.00
17505;BME280;8870;50.950;11.762;2023-02-16T09:19:14;99171.75;;;3.80;100.00
17505;BME280;8870;50.950;11.762;2023-02-16T09:24:32;99182.88;;;3.87;100.00
17505;BME280;8870;50.950;11.762;2023-02-16T09:30:04;99183.63;;;3.89;100.00
17505;BME280;8870;50.950;11.762;2023-02-16T09:35:26;99187.25;;;3.88;100.00
17505;BME280;8870;50.950;11.762;2023-02-16T09:41:05;99179.59;;;3.96;100.00
17505;BME280;8870;50.950;11.762;2023-02-16T09:46:24;99173.16;;;4.13;100.00
17505;BME280;8870;50.950;11.762;2023-02-16T09:52:05;99168.81;;;4.25;100.00
17505;BME280;8870;50.950;11.762;2023-02-16T09:57:41;99161.84;;;4.50;100.00
17505;BME280;8870;50.950;11.762;2023-02-16T10:03:30;99159.50;;;4.97;100.00
17505;BME280;8870;50.950;11.762;2023-02-16T10:08:57;99153.47;;;5.32;100.00
17505;BME280;8870;50.950;11.762;2023-02-16T10:14:34;99145.53;;;5.57;100.00
17505;BME280;8870;50.950;11.762;2023-02-16T10:19:58;99144.56;;;5.82;100.00
17505;BME280;8870;50.950;11.762;2023-02-16T10:25:40;99146.78;;;6.01;100.00
17505;BME280;8870;50.950;11.762;2023-02-16T10:31:02;99142.25;;;6.26;100.00
17505;BME280;8870;50.950;11.762;2023-02-16T10:36:44;99133.56;;;6.46;100.00
17505;BME280;8870;50.950;11.762;2023-02-16T10:42:17;99143.72;;;6.66;100.00
17505;BME280;8870;50.950;11.762;2023-02-16T10:47:51;99123.06;;;6.90;100.00
17505;BME280;8870;50.950;11.762;2023-02-16T10:53:21;99122.19;;;7.13;100.00
17505;BME280;8870;50.950;11.762;2023-02-16T10:58:58;99114.13;;;7.35;100.00
17505;BME280;8870;50.950;11.762;2023-02-16T11:04:32;99108.78;;;7.58;100.00
17505;BME280;8870;50.950;11.762;2023-02-16T11:10:20;99104.31;;;7.80;100.00
17505;BME280;8870;50.950;11.762;2023-02-16T11:15:41;99099.06;;;8.11;100.00
17505;BME280;8870;50.950;11.762;2023-02-16T11:21:12;99094.56;;;8.32;100.00
17505;BME280;8870;50.950;11.762;2023-02-16T11:26:31;99078.03;;;8.48;100.00
17505;BME280;8870;50.950;11.762;2023-02-16T11:32:10;99083.31;;;8.60;100.00
17505;BME280;8870;50.950;11.762;2023-02-16T11:37:31;99080.88;;;8.78;100.00
17505;BME280;8870;50.950;11.762;2023-02-16T11:43:02;99083.47;;;8.89;100.00
17505;BME280;8870;50.950;11.762;2023-02-16T11:48:37;99076.75;;;9.05;100.00
17505;BME280;8870;50.950;11.762;2023-02-16T11:53:59;99073.44;;;9.22;100.00
17505;BME280;8870;50.950;11.762;2023-02-16T11:59:34;99065.00;;;9.47;100.00
17505;BME280;8870;50.950;11.762;2023-02-16T12:11:14;99040.41;;;9.91;100.00
17505;BME280;8870;50.950;11.762;2023-02-16T12:16:45;99043.38;;;10.07;100.00
17505;BME280;8870;50.950;11.762;2023-02-16T12:22:28;99037.16;;;10.16;100.00
17505;BME280;8870;50.950;11.762;2023-02-16T12:27:54;99027.47;;;10.43;100.00
17505;BME280;8870;50.950;11.762;2023-02-16T12:33:40;99018.81;;;10.50;100.00
17505;BME280;8870;50.950;11.762;2023-02-16T12:39:16;99009.69;;;10.70;100.00
17505;BME280;8870;50.950;11.762;2023-02-16T12:44:52;99020.69;;;10.87;100.00
17505;BME280;8870;50.950;11.762;2023-02-16T12:50:17;99011.25;;;11.01;100.00
17505;BME280;8870;50.950;11.762;2023-02-16T12:55:55;99014.44;;;11.14;100.00
17505;BME280;8870;50.950;11.762;2023-02-16T13:01:18;99009.38;;;11.29;100.00
17505;BME280;8870;50.950;11.762;2023-02-16T13:06:56;99016.19;;;11.33;100.00
17505;BME280;8870;50.950;11.762;2023-02-16T13:12:26;99002.38;;;11.36;100.00
17505;BME280;8870;50.950;11.762;2023-02-16T13:18:02;99003.09;;;11.56;100.00
17505;BME280;8870;50.950;11.762;2023-02-16T13:23:33;99001.25;;;11.57;100.00
17505;BME280;8870;50.950;11.762;2023-02-16T13:29:36;98995.94;;;11.65;100.00
17505;BME280;8870;50.950;11.762;2023-02-16T13:35:07;99000.09;;;11.60;100.00
17505;BME280;8870;50.950;11.762;2023-02-16T13:41:04;99012.88;;;11.57;100.00
17505;BME280;8870;50.950;11.762;2023-02-16T13:46:32;99006.50;;;11.59;100.00
17505;BME280;8870;50.950;11.762;2023-02-16T13:52:04;99002.97;;;11.58;100.00
17505;BME280;8870;50.950;11.762;2023-02-16T13:57:59;99002.31;;;11.64;100.00
17505;BME280;8870;50.950;11.762;2023-02-16T14:03:37;99006.19;;;11.80;100.00
17505;BME280;8870;50.950;11.762;2023-02-16T14:09:43;99004.72;;;11.67;100.00
17505;BME280;8870;50.950;11.762;2023-02-16T14:15:18;99007.97;;;11.25;100.00
17505;BME280;8870;50.950;11.762;2023-02-16T14:20:39;99004.41;;;11.06;100.00
17505;BME280;8870;50.950;11.762;2023-02-16T14:26:10;99006.19;;;10.88;100.00
17505;BME280;8870;50.950;11.762;2023-02-16T14:31:32;99011.63;;;10.78;100.00
17505;BME280;8870;50.950;11.762;2023-02-16T14:37:25;99007.09;;;10.78;100.00
17505;BME280;8870;50.950;11.762;2023-02-16T14:42:51;99005.25;;;10.79;100.00
17505;BME280;8870;50.950;11.762;2023-02-16T14:48:42;99013.47;;;10.77;100.00
17505;BME280;8870;50.950;11.762;2023-02-16T14:54:33;99013.59;;;10.86;100.00
17505;BME280;8870;50.950;11.762;2023-02-16T15:00:26;99022.31;;;10.98;100.00
17505;BME280;8870;50.950;11.762;2023-02-16T15:05:52;99016.47;;;11.02;99.72
17505;BME280;8870;50.950;11.762;2023-02-16T15:11:34;99005.66;;;11.12;84.85
17505;BME280;8870;50.950;11.762;2023-02-16T15:17:24;99008.41;;;11.02;91.85
17505;BME280;8870;50.950;11.762;2023-02-16T15:22:59;99001.16;;;10.75;100.00
17505;BME280;8870;50.950;11.762;2023-02-16T15:28:22;98990.16;;;10.58;100.00
17505;BME280;8870;50.950;11.762;2023-02-16T15:33:56;98975.91;;;10.38;100.00
17505;BME280;8870;50.950;11.762;2023-02-16T15:39:24;98971.22;;;10.21;100.00
17505;BME280;8870;50.950;11.762;2023-02-16T15:45:25;98975.94;;;9.99;100.00
17505;BME280;8870;50.950;11.762;2023-02-16T15:51:08;98963.06;;;9.83;100.00
17505;BME280;8870;50.950;11.762;2023-02-16T15:56:34;98959.41;;;9.74;100.00
17505;BME280;8870;50.950;11.762;2023-02-16T16:02:14;98958.56;;;9.44;100.00
17505;BME280;8870;50.950;11.762;2023-02-16T16:07:35;98970.44;;;9.32;100.00
17505;BME280;8870;50.950;11.762;2023-02-16T16:13:12;98967.56;;;9.23;100.00
17505;BME280;8870;50.950;11.762;2023-02-16T16:18:43;98968.41;;;9.04;100.00
17505;BME280;8870;50.950;11.762;2023-02-16T16:24:26;98975.00;;;8.90;100.00
17505;BME280;8870;50.950;11.762;2023-02-16T16:29:47;98974.28;;;8.88;100.00
17505;BME280;8870;50.950;11.762;2023-02-16T16:35:33;98970.72;;;8.78;100.00
17505;BME280;8870;50.950;11.762;2023-02-16T16:40:53;98980.75;;;8.66;100.00
17505;BME280;8870;50.950;11.762;2023-02-16T16:46:27;98975.88;;;8.50;100.00
17505;BME280;8870;50.950;11.762;2023-02-16T16:51:52;98976.91;;;8.38;100.00
17505;BME280;8870;50.950;11.762;2023-02-16T16:57:24;98985.03;;;8.26;100.00
17505;BME280;8870;50.950;11.762;2023-02-16T17:02:44;98988.22;;;8.20;100.00
17505;BME280;8870;50.950;11.762;2023-02-16T17:08:18;98988.88;;;8.12;100.00
17505;BME280;8870;50.950;11.762;2023-02-16T17:13:37;99001.00;;;8.07;100.00
17505;BME280;8870;50.950;11.762;2023-02-16T17:19:10;98998.53;;;7.94;100.00
17505;BME280;8870;50.950;11.762;2023-02-16T17:24:31;99023.94;;;7.78;100.00
17505;BME280;8870;50.950;11.762;2023-02-16T17:30:04;99029.31;;;7.78;100.00
17505;BME280;8870;50.950;11.762;2023-02-16T17:35:23;99029.59;;;7.75;100.00
17505;BME280;8870;50.950;11.762;2023-02-16T17:40:57;99027.03;;;7.74;100.00
17505;BME280;8870;50.950;11.762;2023-02-16T17:46:23;99020.47;;;7.66;100.00
17505;BME280;8870;50.950;11.762;2023-02-16T17:51:54;99019.28;;;7.59;100.00
17505;BME280;8870;50.950;11.762;2023-02-16T17:57:15;99030.28;;;7.56;100.00
17505;BME280;8870;50.950;11.762;2023-02-16T18:02:47;99024.56;;;7.49;100.00
17505;BME280;8870;50.950;11.762;2023-02-16T18:08:06;99033.97;;;7.44;100.00
17505;BME280;8870;50.950;11.762;2023-02-16T18:13:40;99029.09;;;7.37;100.00
17505;BME280;8870;50.950;11.762;2023-02-16T18:18:58;99043.75;;;7.33;100.00
17505;BME280;8870;50.950;11.762;2023-02-16T18:24:30;99043.50;;;7.25;100.00
17505;BME280;8870;50.950;11.762;2023-02-16T18:29:51;99039.03;;;7.14;100.00
17505;BME280;8870;50.950;11.762;2023-02-16T18:35:10;99022.69;;;7.06;100.00
17505;BME280;8870;50.950;11.762;2023-02-16T18:40:42;99039.66;;;6.95;100.00
17505;BME280;8870;50.950;11.762;2023-02-16T18:46:10;99043.06;;;6.86;100.00
17505;BME280;8870;50.950;11.762;2023-02-16T18:51:42;99044.28;;;6.82;100.00
17505;BME280;8870;50.950;11.762;2023-02-16T18:57:01;99045.25;;;6.69;100.00
17505;BME280;8870;50.950;11.762;2023-02-16T19:02:34;99053.75;;;6.52;100.00
17505;BME280;8870;50.950;11.762;2023-02-16T19:07:54;99045.22;;;6.46;100.00
17505;BME280;8870;50.950;11.762;2023-02-16T19:13:25;99049.59;;;6.36;100.00
17505;BME280;8870;50.950;11.762;2023-02-16T19:18:46;99038.38;;;6.31;100.00
17505;BME280;8870;50.950;11.762;2023-02-16T19:24:18;99031.59;;;6.27;100.00
17505;BME280;8870;50.950;11.762;2023-02-16T19:29:37;99021.34;;;6.21;100.00
17505;BME280;8870;50.950;11.762;2023-02-16T19:35:10;99016.47;;;6.14;100.00
17505;BME280;8870;50.950;11.762;2023-02-16T19:40:28;99005.16;;;6.11;100.00
17505;BME280;8870;50.950;11.762;2023-02-16T19:46:01;99002.59;;;6.09;100.00
17505;BME280;8870;50.950;11.762;2023-02-16T19:51:35;99004.03;;;6.02;100.00
17505;BME280;8870;50.950;11.762;2023-02-16T19:56:54;99005.19;;;5.98;100.00
17505;BME280;8870;50.950;11.762;2023-02-16T20:02:25;98998.41;;;5.94;100.00
17505;BME280;8870;50.950;11.762;2023-02-16T20:07:47;98983.44;;;5.91;100.00
17505;BME280;8870;50.950;11.762;2023-02-16T20:13:18;98999.38;;;5.93;100.00
17505;BME280;8870;50.950;11.762;2023-02-16T20:18:37;98987.72;;;5.94;100.00
17505;BME280;8870;50.950;11.762;2023-02-16T20:24:12;98998.16;;;5.97;100.00
17505;BME280;8870;50.950;11.762;2023-02-16T20:29:31;98992.38;;;6.03;100.00
17505;BME280;8870;50.950;11.762;2023-02-16T20:35:03;98985.09;;;6.05;100.00
17505;BME280;8870;50.950;11.762;2023-02-16T20:40:27;98980.72;;;6.04;100.00
17505;BME280;8870;50.950;11.762;2023-02-16T20:46:00;98981.78;;;6.01;100.00
17505;BME280;8870;50.950;11.762;2023-02-16T20:51:34;98974.81;;;5.99;100.00
17505;BME280;8870;50.950;11.762;2023-02-16T20:56:56;98960.28;;;6.03;100.00
17505;BME280;8870;50.950;11.762;2023-02-16T21:02:41;98969.03;;;6.05;100.00
17505;BME280;8870;50.950;11.762;2023-02-16T21:08:00;98957.47;;;6.05;100.00
17505;BME280;8870;50.950;11.762;2023-02-16T21:13:33;98960.50;;;6.00;100.00
17505;BME280;8870;50.950;11.762;2023-02-16T21:18:52;98944.66;;;5.97;100.00
17505;BME280;8870;50.950;11.762;2023-02-16T21:24:36;98933.97;;;5.97;100.00
17505;BME280;8870;50.950;11.762;2023-02-16T21:29:58;98924.91;;;5.99;100.00
17505;BME280;8870;50.950;11.762;2023-02-16T21:35:31;98921.13;;;6.02;100.00
17505;BME280;8870;50.950;11.762;2023-02-16T21:40:49;98918.31;;;6.04;100.00
17505;BME280;8870;50.950;11.762;2023-02-16T21:46:37;98920.91;;;6.05;100.00
17505;BME280;8870;50.950;11.762;2023-02-16T21:52:08;98918.81;;;6.09;100.00
17505;BME280;8870;50.950;11.762;2023-02-16T21:57:27;98906.66;;;6.16;100.00
17505;BME280;8870;50.950;11.762;2023-02-16T22:03:00;98911.53;;;6.22;100.00
17505;BME280;8870;50.950;11.762;2023-02-16T22:08:19;98901.44;;;6.26;100.00
17505;BME280;8870;50.950;11.762;2023-02-16T22:13:52;98908.59;;;6.25;100.00
17505;BME280;8870;50.950;11.762;2023-02-16T22:19:16;98900.56;;;6.25;100.00
17505;BME280;8870;50.950;11.762;2023-02-16T22:24:48;98904.84;;;6.28;100.00
17505;BME280;8870;50.950;11.762;2023-02-16T22:30:10;98894.84;;;6.30;100.00
17505;BME280;8870;50.950;11.762;2023-02-16T22:35:45;98894.84;;;6.30;100.00
17505;BME280;8870;50.950;11.762;2023-02-16T22:41:06;98894.84;;;6.30;100.00
17505;BME280;8870;50.950;11.762;2023-02-16T22:46:39;98897.53;;;6.30;100.00
17505;BME280;8870;50.950;11.762;2023-02-16T22:52:14;98892.16;;;6.30;100.00
17505;BME280;8870;50.950;11.762;2023-02-16T22:57:37;98878.09;;;6.28;100.00
17505;BME280;8870;50.950;11.762;2023-02-16T23:03:18;98879.66;;;6.30;100.00
17505;BME280;8870;50.950;11.762;2023-02-16T23:08:39;98872.38;;;6.32;100.00
17505;BME280;8870;50.950;11.762;2023-02-16T23:14:10;98853.50;;;6.34;100.00
17505;BME280;8870;50.950;11.762;2023-02-16T23:19:36;98843.66;;;6.35;100.00
17505;BME280;8870;50.950;11.762;2023-02-16T23:25:11;98839.97;;;6.36;100.00
17505;BME280;8870;50.950;11.762;2023-02-16T23:30:43;98846.78;;;6.40;100.00
17505;BME280;8870;50.950;11.762;2023-02-16T23:36:15;98849.34;;;6.41;100.00
17505;BME280;8870;50.950;11.762;2023-02-16T23:41:35;98836.59;;;6.45;100.00
17505;BME280;8870;50.950;11.762;2023-02-16T23:47:07;98825.75;;;6.46;100.00
17505;BME280;8870;50.950;11.762;2023-02-16T23:52:25;98822.09;;;6.47;100.00
17505;BME280;8870;50.950;11.762;2023-02-16T23:57:58;98806.38;;;6.54;100.00
